Time;durP1;ratioP1;P1;durP2;ratioP2;P2;SDS_P1;SDS_P2;PMS_P1;PMS_P2;Temp;Humidity;BMP_temperature;BMP_pressure;BME280_temperature;BME280_humidity;BME280_pressure;Samples;Min_cycle;Max_cycle;Signal;HPM_P1;HPM_P2
2023/03/28 00:00:20;;;;;;;7.53;5.32;;;;;;;-1.09;100.00;96436.22;1006878;29;20474;-67
2023/03/28 00:00:51;;;;;;;11.55;5.38;;;;;;;-1.09;100.00;96436.22;1013960;29;20031;-65
2023/03/28 00:01:21;;;;;;;6.53;4.82;;;;;;;-1.11;100.00;96435.56;1014460;29;20112;-66
2023/03/28 00:01:51;;;;;;;9.70;5.20;;;;;;;-1.16;100.00;96435.28;1018123;29;20047;-68
2023/03/28 00:02:22;;;;;;;8.38;4.75;;;;;;;-1.14;100.00;96441.06;1018243;29;20501;-67
2023/03/28 00:02:52;;;;;;;7.43;4.53;;;;;;;-1.18;100.00;96445.75;1018246;29;20505;-68
2023/03/28 00:03:24;;;;;;;7.43;4.70;;;;;;;-1.19;100.00;96447.53;1018186;29;20177;-67
2023/03/28 00:03:55;;;;;;;6.48;4.38;;;;;;;-1.24;100.00;96438.69;1018023;29;20027;-66
2023/03/28 00:04:28;;;;;;;8.24;5.00;;;;;;;-1.26;100.00;96438.88;1018731;28;20024;-66
2023/03/28 00:04:59;;;;;;;8.64;5.32;;;;;;;-1.27;100.00;96437.28;1020314;29;20034;-70
2023/03/28 00:05:30;;;;;;;8.40;4.55;;;;;;;-1.25;100.00;96448.19;1018571;29;20134;-71
2023/03/28 00:06:01;;;;;;;8.60;5.30;;;;;;;-1.25;100.00;96437.09;1017866;29;20028;-69
2023/03/28 00:06:31;;;;;;;8.02;4.85;;;;;;;-1.23;100.00;96442.91;1014707;29;20038;-68
2023/03/28 00:07:02;;;;;;;6.88;5.00;;;;;;;-1.21;100.00;96443.50;1018375;29;20318;-69
2023/03/28 00:07:32;;;;;;;8.85;5.55;;;;;;;-1.23;100.00;96441.13;1018255;29;20127;-68
2023/03/28 00:08:04;;;;;;;8.75;4.97;;;;;;;-1.22;100.00;96447.88;1014146;29;20036;-68
2023/03/28 00:08:35;;;;;;;9.20;4.94;;;;;;;-1.22;100.00;96440.13;1014241;29;20042;-68
2023/03/28 00:09:07;;;;;;;9.22;4.90;;;;;;;-1.21;100.00;96444.34;1009549;29;20410;-68
2023/03/28 00:09:38;;;;;;;9.06;5.90;;;;;;;-1.21;100.00;96441.75;1007260;29;20112;-68
2023/03/28 00:10:08;;;;;;;8.93;5.57;;;;;;;-1.19;100.00;96450.09;1006805;29;20025;-67
2023/03/28 00:10:39;;;;;;;8.15;5.30;;;;;;;-1.20;100.00;96455.44;1011076;29;20021;-67
2023/03/28 00:11:19;;;;;;;6.90;5.10;;;;;;;-1.20;100.00;96450.28;1017758;29;20020;-67
2023/03/28 00:11:50;;;;;;;;;;;;;;;-1.21;100.00;96454.63;1023828;28;20031;-67
2023/03/28 00:12:20;;;;;;;11.98;5.78;;;;;;;-1.23;100.00;96448.03;1026104;28;19910;-69
2023/03/28 00:12:51;;;;;;;9.07;5.90;;;;;;;-1.22;100.00;96453.00;1012954;29;20032;-66
2023/03/28 00:13:22;;;;;;;15.27;6.20;;;;;;;-1.21;100.00;96444.34;1014112;29;20020;-65
2023/03/28 00:14:02;;;;;;;10.15;5.40;;;;;;;-1.19;100.00;96450.09;1014680;29;20024;-66
2023/03/28 00:14:34;;;;;;;10.98;5.25;;;;;;;-1.17;100.00;96454.25;1014022;29;20032;-69
2023/03/28 00:15:05;;;;;;;8.52;5.44;;;;;;;-1.19;100.00;96447.53;1018280;29;20084;-68
2023/03/28 00:15:39;;;;;;;8.73;5.47;;;;;;;-1.22;100.00;96442.72;1010269;29;20127;-67
2023/03/28 00:16:12;;;;;;;10.66;6.02;;;;;;;-1.19;100.00;96451.88;1007693;29;20099;-66
2023/03/28 00:16:45;;;;;;;9.76;6.32;;;;;;;-1.12;100.00;96457.16;1010470;29;20048;-68
2023/03/28 00:17:16;;;;;;;7.80;5.54;;;;;;;-1.12;100.00;96452.00;1011623;29;20088;-68
2023/03/28 00:17:48;;;;;;;11.56;5.68;;;;;;;-1.10;100.00;96456.00;1015387;29;20068;-67
2023/03/28 00:18:18;;;;;;;7.70;5.62;;;;;;;-1.07;100.00;96458.25;1018755;29;20034;-68
2023/03/28 00:18:49;;;;;;;8.23;5.40;;;;;;;-1.06;100.00;96457.25;1014492;29;20458;-66
2023/03/28 00:19:20;;;;;;;12.62;6.12;;;;;;;-1.03;100.00;96458.69;1014419;29;20031;-63
2023/03/28 00:19:52;;;;;;;9.10;5.45;;;;;;;-1.01;100.00;96462.69;1010161;29;20056;-69
2023/03/28 00:20:22;;;;;;;7.94;5.28;;;;;;;-0.98;100.00;96454.63;1010799;29;20049;-67
2023/03/28 00:20:53;;;;;;;9.50;5.88;;;;;;;-0.98;100.00;96454.63;1014490;29;20037;-66
2023/03/28 00:21:26;;;;;;;7.10;5.10;;;;;;;-0.96;100.00;96452.69;1017944;29;20055;-66
2023/03/28 00:21:56;;;;;;;10.28;5.40;;;;;;;-0.97;100.00;96450.28;1019445;28;20051;-68
2023/03/28 00:22:29;;;;;;;12.98;5.57;;;;;;;-1.04;100.00;96444.19;1021877;29;20047;-67
2023/03/28 00:22:59;;;;;;;9.68;5.62;;;;;;;-0.97;100.00;96455.44;1022117;29;20416;-66
2023/03/28 00:23:30;;;;;;;12.38;6.25;;;;;;;-1.02;100.00;96450.00;1022412;29;20031;-68
2023/03/28 00:24:02;;;;;;;12.77;5.47;;;;;;;-0.97;100.00;96461.38;1014590;29;20032;-69
2023/03/28 00:24:37;;;;;;;9.32;5.68;;;;;;;-0.97;100.00;96468.31;1013640;29;20026;-68
2023/03/28 00:25:08;;;;;;;11.74;6.20;;;;;;;-0.99;100.00;96457.38;1013966;29;20028;-67
2023/03/28 00:25:42;;;;;;;9.95;5.63;;;;;;;-1.02;100.00;96457.72;1015243;29;20036;-69
2023/03/28 00:26:12;;;;;;;8.00;5.52;;;;;;;-1.03;100.00;96461.28;1016858;29;20024;-70
2023/03/28 00:26:44;;;;;;;9.23;6.03;;;;;;;-1.03;100.00;96462.06;1021892;28;20416;-67
2023/03/28 00:27:14;;;;;;;10.20;5.90;;;;;;;-1.03;100.00;96461.28;1018436;29;20103;-70
2023/03/28 00:27:45;;;;;;;10.80;5.57;;;;;;;-1.08;100.00;96453.25;1014848;29;20016;-65
2023/03/28 00:28:15;;;;;;;10.85;5.55;;;;;;;-1.07;100.00;96465.16;1018051;29;20555;-66
2023/03/28 00:28:46;;;;;;;10.57;6.47;;;;;;;-1.08;100.00;96463.53;1018247;29;20024;-67
2023/03/28 00:29:19;;;;;;;9.85;6.43;;;;;;;-1.08;100.00;96466.13;1018273;29;20441;-68
2023/03/28 00:29:50;;;;;;;8.06;5.62;;;;;;;-1.10;100.00;96466.31;1018677;29;20091;-67
2023/03/28 00:30:20;;;;;;;9.10;5.90;;;;;;;-1.12;100.00;96464.88;1014502;29;20088;-71
2023/03/28 00:30:51;;;;;;;8.73;5.40;;;;;;;-1.15;100.00;96466.00;1014532;29;20027;-67
2023/03/28 00:31:22;;;;;;;7.82;5.13;;;;;;;-1.22;100.00;96460.75;1018612;29;20019;-66
2023/03/28 00:31:53;;;;;;;8.78;5.96;;;;;;;-1.17;100.00;96464.56;1014597;29;20035;-67
2023/03/28 00:32:23;;;;;;;9.85;5.53;;;;;;;-1.15;100.00;96462.63;1021650;29;20086;-69
2023/03/28 00:32:54;;;;;;;10.18;5.57;;;;;;;-1.14;100.00;96464.22;1018334;29;20035;-66
2023/03/28 00:33:27;;;;;;;12.06;6.42;;;;;;;-1.16;100.00;96469.56;1014355;29;20032;-68
2023/03/28 00:33:58;;;;;;;8.72;5.68;;;;;;;-1.16;100.00;96464.41;1019478;29;20023;-69
2023/03/28 00:34:28;;;;;;;8.88;5.88;;;;;;;-1.19;100.00;96462.19;1022360;28;20584;-66
2023/03/28 00:34:59;;;;;;;8.07;5.70;;;;;;;-1.19;100.00;96467.31;1022101;28;20050;-68
2023/03/28 00:35:30;;;;;;;11.77;6.13;;;;;;;-1.20;100.00;96469.09;1024911;28;20026;-68
2023/03/28 00:36:00;;;;;;;7.90;4.92;;;;;;;-1.16;100.00;96467.00;1018193;29;20024;-67
2023/03/28 00:36:31;;;;;;;9.25;5.72;;;;;;;-1.14;100.00;96469.38;1018107;29;20558;-68
2023/03/28 00:37:01;;;;;;;9.88;5.55;;;;;;;-1.14;100.00;96469.38;1021986;29;20019;-66
2023/03/28 00:37:32;;;;;;;9.05;6.30;;;;;;;-1.18;100.00;96463.78;1018158;29;20056;-67
2023/03/28 00:38:03;;;;;;;10.45;6.05;;;;;;;-1.21;100.00;96467.50;1018198;29;20016;-68
2023/03/28 00:38:33;;;;;;;10.00;6.40;;;;;;;-1.24;100.00;96473.00;1014336;29;20060;-66
2023/03/28 00:39:09;;;;;;;10.77;6.57;;;;;;;-1.23;100.00;96463.50;1014126;29;20136;-66
2023/03/28 00:39:39;;;;;;;10.12;6.62;;;;;;;-1.20;100.00;96476.03;1015297;29;20020;-68
2023/03/28 00:40:12;;;;;;;8.30;5.70;;;;;;;-1.21;100.00;96467.50;1014659;29;20024;-68
2023/03/28 00:40:46;;;;;;;9.16;5.56;;;;;;;-1.27;100.00;96455.31;1018000;29;20031;-69
2023/03/28 00:41:17;;;;;;;8.90;6.36;;;;;;;-1.22;100.00;96473.59;1012750;29;20514;-68
2023/03/28 00:41:48;;;;;;;10.32;6.28;;;;;;;-1.23;100.00;96468.66;1011213;29;20025;-66
2023/03/28 00:42:20;;;;;;;10.43;5.90;;;;;;;-1.25;100.00;96471.38;1015344;29;20648;-67
2023/03/28 00:42:50;;;;;;;8.66;5.80;;;;;;;-1.24;100.00;96467.84;1018653;29;20438;-65
2023/03/28 00:43:42;;;;;;;12.27;6.05;;;;;;;-1.26;100.00;96471.56;1010133;29;20024;-69
2023/03/28 00:44:38;;;;;;;13.06;6.74;;;;;;;-1.28;100.00;96464.00;1012110;29;20073;-68
2023/03/28 00:45:10;;;;;;;11.74;6.50;;;;;;;-1.30;100.00;96470.31;1018345;29;20015;-68
2023/03/28 00:45:41;;;;;;;11.04;5.90;;;;;;;-1.37;100.00;96457.31;1022587;29;20027;-71
2023/03/28 00:46:23;;;;;;;9.70;5.88;;;;;;;-1.28;100.00;96464.00;1015000;29;20024;-69
2023/03/28 00:46:54;;;;;;;8.28;5.78;;;;;;;-1.28;100.00;96466.56;1010875;29;20081;-67
2023/03/28 00:47:40;;;;;;;9.15;5.95;;;;;;;-1.30;100.00;96472.88;1014549;29;20141;-66
2023/03/28 00:48:12;;;;;;;14.34;6.76;;;;;;;-1.30;100.00;96465.16;1010454;29;20013;-66
2023/03/28 00:48:47;;;;;;;8.40;5.52;;;;;;;-1.35;100.00;96460.50;1010812;29;20461;-67
2023/03/28 00:49:20;;;;;;;9.42;5.72;;;;;;;-1.36;100.00;96465.81;1016609;29;20024;-66
2023/03/28 00:49:52;;;;;;;10.20;6.44;;;;;;;-1.36;100.00;96466.63;1016902;29;20026;-68
2023/03/28 00:50:30;;;;;;;12.60;6.32;;;;;;;-1.38;100.00;96453.09;1010465;29;20016;-66
2023/03/28 00:51:02;;;;;;;10.58;6.68;;;;;;;-1.41;100.00;96456.00;1015986;29;20398;-67
2023/03/28 00:51:36;;;;;;;11.92;6.12;;;;;;;-1.43;100.00;96456.19;1014913;29;20015;-63
2023/03/28 00:52:06;;;;;;;13.60;7.82;;;;;;;-1.40;100.00;96462.78;1015696;29;20127;-68
2023/03/28 00:52:40;;;;;;;11.48;6.70;;;;;;;-1.37;100.00;96459.88;1017982;29;20016;-66
2023/03/28 00:53:12;;;;;;;10.76;6.40;;;;;;;-1.30;100.00;96465.94;1019675;29;20054;-70
2023/03/28 00:53:43;;;;;;;13.32;7.28;;;;;;;-1.40;100.00;96449.91;1018650;29;20020;-67
2023/03/28 00:54:16;;;;;;;11.27;6.90;;;;;;;-1.35;100.00;96452.78;1022215;28;20798;-70
2023/03/28 00:54:47;;;;;;;13.00;6.32;;;;;;;-1.33;100.00;96461.13;1025896;28;20019;-66
2023/03/28 00:55:20;;;;;;;10.70;6.55;;;;;;;-1.33;100.00;96461.13;1026433;28;20022;-70
2023/03/28 00:55:56;;;;;;;10.14;5.88;;;;;;;-1.40;100.00;96462.78;1023618;28;20612;-68
2023/03/28 00:56:29;;;;;;;8.20;5.68;;;;;;;-1.45;100.00;96457.34;1019941;29;20024;-66
2023/03/28 00:57:00;;;;;;;11.38;7.62;;;;;;;-1.41;100.00;96468.88;1017969;29;20032;-70
2023/03/28 00:57:30;;;;;;;9.04;6.02;;;;;;;-1.38;100.00;96473.69;1019147;29;20087;-67
2023/03/28 00:58:02;;;;;;;10.80;5.90;;;;;;;-1.45;100.00;96458.13;1014006;29;20027;-65
2023/03/28 00:58:34;;;;;;;8.28;5.98;;;;;;;-1.40;100.00;96469.72;1017633;29;20020;-70
2023/03/28 00:59:06;;;;;;;9.86;6.36;;;;;;;-1.44;100.00;96464.91;1010519;29;20029;-67
2023/03/28 00:59:37;;;;;;;9.60;6.12;;;;;;;-1.40;100.00;96467.13;1012867;29;20489;-67
2023/03/28 01:00:11;;;;;;;9.57;6.13;;;;;;;-1.41;100.00;96468.88;1006305;29;20100;-72
2023/03/28 01:00:41;;;;;;;10.40;6.76;;;;;;;-1.47;100.00;96457.50;1011038;29;20013;-67
2023/03/28 01:01:12;;;;;;;13.10;6.32;;;;;;;-1.42;100.00;96473.25;1018596;29;20781;-68
2023/03/28 01:01:43;;;;;;;9.38;5.90;;;;;;;-1.46;100.00;96463.47;1014895;29;20179;-68
2023/03/28 01:02:14;;;;;;;9.15;5.85;;;;;;;-1.45;100.00;96472.78;1010056;29;20021;-67
2023/03/28 01:02:49;;;;;;;10.15;5.85;;;;;;;-1.47;100.00;96467.00;1014841;29;20817;-67
2023/03/28 01:03:21;;;;;;;10.58;6.38;;;;;;;-1.56;100.00;96455.16;1014114;29;20049;-67
2023/03/28 01:04:00;;;;;;;8.76;5.84;;;;;;;-1.54;100.00;96461.75;1014240;29;20107;-70
2023/03/28 01:04:39;;;;;;;10.16;5.88;;;;;;;-1.52;100.00;96471.84;1017549;29;20535;-67
2023/03/28 01:05:09;;;;;;;10.80;6.06;;;;;;;-1.55;100.00;96467.03;1016535;29;20087;-67
2023/03/28 01:05:40;;;;;;;9.95;6.22;;;;;;;-1.63;100.00;96459.38;1020729;29;20087;-68
2023/03/28 01:06:12;;;;;;;11.77;5.97;;;;;;;-1.61;100.00;96468.53;1018785;29;20034;-70
2023/03/28 01:06:45;;;;;;;9.14;5.96;;;;;;;-1.60;100.00;96472.69;1018099;29;20023;-69
2023/03/28 01:07:15;;;;;;;12.18;7.28;;;;;;;-1.60;100.00;96462.41;1010407;29;20016;-68
2023/03/28 01:07:48;;;;;;;10.82;6.60;;;;;;;-1.57;100.00;96464.66;1018193;29;20024;-69
2023/03/28 01:08:22;;;;;;;11.94;6.50;;;;;;;-1.59;100.00;96465.78;1018201;29;20015;-67
2023/03/28 01:08:53;;;;;;;11.40;7.18;;;;;;;-1.59;100.00;96465.78;1012500;29;20618;-68
2023/03/28 01:09:24;;;;;;;11.35;6.20;;;;;;;-1.57;100.00;96471.56;1006414;29;20033;-68
2023/03/28 01:09:54;;;;;;;14.82;6.70;;;;;;;-1.58;100.00;96468.16;1009928;29;20842;-67
2023/03/28 01:10:25;;;;;;;12.65;6.00;;;;;;;-1.58;100.00;96464.78;1006181;29;20024;-69
2023/03/28 01:10:55;;;;;;;10.43;6.03;;;;;;;-1.61;100.00;96465.97;1006689;29;20063;-67
2023/03/28 01:11:26;;;;;;;9.63;6.40;;;;;;;-1.67;100.00;96462.28;1006374;29;20025;-70
2023/03/28 01:11:56;;;;;;;11.10;6.68;;;;;;;-1.63;100.00;96470.47;1005581;29;20029;-70
2023/03/28 01:12:27;;;;;;;12.75;6.68;;;;;;;-1.69;100.00;96464.19;1010349;29;20032;-68
2023/03/28 01:12:58;;;;;;;9.73;6.15;;;;;;;-1.63;100.00;96477.38;1010112;29;20032;-68
2023/03/28 01:13:34;;;;;;;9.23;6.30;;;;;;;-1.58;100.00;96473.31;1007463;29;20029;-67
2023/03/28 01:14:05;;;;;;;10.84;6.52;;;;;;;-1.59;100.00;96460.63;1014589;29;20542;-67
2023/03/28 01:14:38;;;;;;;13.44;7.54;;;;;;;-1.55;100.00;96477.31;1014130;29;20119;-67
2023/03/28 01:15:09;;;;;;;9.96;6.44;;;;;;;-1.70;100.00;96454.88;1011241;29;20020;-67
2023/03/28 01:15:39;;;;;;;8.94;6.32;;;;;;;-1.55;100.00;96477.31;1011509;29;20020;-66
2023/03/28 01:16:11;;;;;;;11.18;5.75;;;;;;;-1.61;100.00;96462.56;1007233;29;20021;-69
2023/03/28 01:16:41;;;;;;;10.42;6.08;;;;;;;-1.57;100.00;96479.28;1010694;29;20020;-66
2023/03/28 01:17:12;;;;;;;11.10;5.75;;;;;;;-1.59;100.00;96473.50;1014758;29;20024;-69
2023/03/28 01:17:45;;;;;;;13.18;6.75;;;;;;;-1.61;100.00;96472.84;1011608;29;20024;-67
2023/03/28 01:18:17;;;;;;;10.06;5.80;;;;;;;-1.69;100.00;96466.78;1014772;29;20017;-67
2023/03/28 01:18:51;;;;;;;11.24;6.38;;;;;;;-1.66;100.00;96476.72;1011044;29;20592;-67
2023/03/28 01:19:28;;;;;;;11.52;6.56;;;;;;;-1.64;100.00;96474.00;1007529;29;20020;-68
2023/03/28 01:20:25;;;;;;;13.76;6.70;;;;;;;-1.66;100.00;96469.00;1013218;29;20021;-68
2023/03/28 01:21:05;;;;;;;12.30;6.28;;;;;;;-1.68;100.00;96476.13;1015321;29;20565;-65
2023/03/28 01:22:05;;;;;;;10.00;6.20;;;;;;;-1.66;100.00;96484.44;1018762;29;20094;-68
2023/03/28 01:22:44;;;;;;;8.82;6.20;;;;;;;-1.65;100.00;96477.53;1020105;29;20410;-68
2023/03/28 01:23:39;;;;;;;11.64;6.30;;;;;;;-1.61;100.00;96478.81;1018891;29;20475;-65
2023/03/28 01:24:19;;;;;;;12.98;6.74;;;;;;;-1.63;100.00;96487.66;1018761;29;20020;-67
2023/03/28 01:25:01;;;;;;;12.93;6.60;;;;;;;-1.66;100.00;96481.88;1018631;29;20031;-68
2023/03/28 01:25:54;;;;;;;11.98;6.86;;;;;;;-1.89;100.00;96450.16;1014871;29;20028;-66
2023/03/28 01:26:46;;;;;;;10.22;6.26;;;;;;;-1.70;100.00;96490.91;1010959;29;20028;-69
2023/03/28 01:28:01;;;;;;;11.36;7.14;;;;;;;-1.73;100.00;96488.66;1018302;29;20320;-69
2023/03/28 01:28:42;;;;;;;10.12;6.62;;;;;;;-1.74;100.00;96481.94;1018722;29;20031;-66
2023/03/28 01:29:25;;;;;;;9.22;5.78;;;;;;;-1.74;100.00;96496.56;1014802;29;20104;-70
2023/03/28 01:30:24;;;;;;;12.94;6.62;;;;;;;-1.75;100.00;96493.16;1014903;29;20048;-72
2023/03/28 01:31:05;;;;;;;13.27;6.72;;;;;;;-1.75;100.00;96485.44;1014595;29;20486;-68
2023/03/28 01:31:45;;;;;;;19.58;6.50;;;;;;;-1.72;100.00;96486.88;1011321;29;20829;-69
2023/03/28 01:32:21;;;;;;;13.30;7.15;;;;;;;-1.68;100.00;96488.16;1012198;29;20029;-66
2023/03/28 01:33:21;;;;;;;12.38;6.65;;;;;;;-1.70;100.00;96490.09;1018502;29;20027;-68
2023/03/28 01:34:10;;;;;;;11.70;6.10;;;;;;;-1.73;100.00;96488.66;1010507;29;20032;-67
2023/03/28 01:35:17;;;;;;;12.35;6.50;;;;;;;-1.79;100.00;96484.19;1010153;29;20923;-69
2023/03/28 01:36:03;;;;;;;15.10;6.88;;;;;;;-1.79;100.00;96489.31;1009709;29;21583;-68
2023/03/28 01:36:52;;;;;;;11.38;6.80;;;;;;;-1.79;100.00;96494.47;1012023;29;20088;-66
2023/03/28 01:37:36;;;;;;;10.98;6.53;;;;;;;-1.97;100.00;96465.63;1014808;29;20076;-68
2023/03/28 01:38:20;;;;;;;10.20;6.30;;;;;;;-1.84;100.00;96489.03;1018848;29;20024;-73
2023/03/28 01:38:54;;;;;;;14.88;7.68;;;;;;;-1.93;100.00;96484.88;1018662;29;20043;-67
2023/03/28 01:39:37;;;;;;;12.08;6.70;;;;;;;-1.88;100.00;96497.22;1018696;29;20016;-69
2023/03/28 01:40:23;;;;;;;11.00;6.28;;;;;;;-1.90;100.00;96492.25;1022454;29;20023;-66
2023/03/28 01:41:47;;;;;;;11.06;7.04;;;;;;;-1.85;100.00;96496.91;1014691;29;20525;-67
2023/03/28 01:42:31;;;;;;;12.38;6.63;;;;;;;-1.91;100.00;96496.63;1014690;29;20529;-66
2023/03/28 01:43:13;;;;;;;11.45;6.65;;;;;;;-1.94;100.00;96491.00;1018618;29;20126;-66
2023/03/28 01:44:09;;;;;;;14.48;7.00;;;;;;;-1.89;100.00;96493.88;1014842;29;20028;-67
2023/03/28 01:45:13;;;;;;;10.15;5.70;;;;;;;-1.91;100.00;96494.03;1011760;29;20027;-68
2023/03/28 01:45:55;;;;;;;11.52;7.04;;;;;;;-1.88;100.00;96499.81;1009959;29;20028;-66
2023/03/28 01:46:35;;;;;;;15.05;7.20;;;;;;;-1.88;100.00;96498.03;1008934;29;20483;-66
2023/03/28 01:47:14;;;;;;;11.55;7.50;;;;;;;-1.91;100.00;96500.97;1014520;29;20021;-69
2023/03/28 01:48:36;;;;;;;15.52;7.03;;;;;;;-1.90;100.00;96502.56;1018572;29;20656;-66
2023/03/28 01:49:21;;;;;;;12.13;7.40;;;;;;;-1.92;100.00;96497.56;999567;29;20082;-71
2023/03/28 01:50:31;;;;;;;10.07;6.75;;;;;;;-1.88;100.00;96503.16;1022328;29;20393;-64
2023/03/28 01:51:23;;;;;;;13.25;7.07;;;;;;;-1.88;100.00;96502.38;1018529;29;20020;-67
2023/03/28 01:52:00;;;;;;;11.60;6.47;;;;;;;-1.91;100.00;96503.53;1014752;29;20024;-66
2023/03/28 01:53:15;;;;;;;18.23;7.22;;;;;;;-1.94;100.00;96506.44;1018847;29;20054;-69
2023/03/28 01:53:50;;;;;;;11.52;6.45;;;;;;;-1.93;100.00;96505.44;1006545;29;20022;-68
2023/03/28 01:54:29;;;;;;;9.88;6.35;;;;;;;-1.90;100.00;96497.41;1015763;29;20024;-68
2023/03/28 01:55:20;;;;;;;12.50;7.07;;;;;;;-1.96;100.00;96485.22;1013989;29;20028;-68
2023/03/28 01:55:54;;;;;;;13.90;7.70;;;;;;;-1.88;100.00;96492.88;1011147;29;20787;-68
2023/03/28 01:56:38;;;;;;;10.13;6.90;;;;;;;-1.91;100.00;96503.53;1010785;29;20024;-68
2023/03/28 01:57:18;;;;;;;14.50;7.15;;;;;;;-1.90;100.00;96503.34;1011001;29;20129;-67
2023/03/28 01:57:54;;;;;;;11.77;6.35;;;;;;;-1.91;100.00;96504.31;1016086;29;20024;-66
2023/03/28 01:58:39;;;;;;;13.35;7.72;;;;;;;-1.90;100.00;96492.25;1014236;29;20064;-67
2023/03/28 01:59:16;;;;;;;13.93;7.07;;;;;;;-1.86;100.00;96500.44;1014771;29;20024;-70
2023/03/28 02:00:00;;;;;;;12.40;7.43;;;;;;;-1.86;100.00;96501.25;1014666;29;20039;-68
2023/03/28 02:00:38;;;;;;;11.86;7.12;;;;;;;-1.96;100.00;96487.78;1010492;29;20024;-68
2023/03/28 02:01:12;;;;;;;11.05;6.85;;;;;;;-1.88;100.00;96508.31;1010719;29;20479;-68
2023/03/28 02:02:00;;;;;;;13.75;7.72;;;;;;;-1.89;100.00;96504.16;1014238;29;20079;-67
2023/03/28 02:02:37;;;;;;;13.20;7.47;;;;;;;-1.87;100.00;96502.22;1016940;29;20024;-69
2023/03/28 02:03:20;;;;;;;15.44;7.96;;;;;;;-1.83;100.00;96505.28;1018660;29;20418;-66
2023/03/28 02:03:57;;;;;;;12.40;7.18;;;;;;;-1.85;100.00;96507.19;1014574;29;20814;-65
2023/03/28 02:04:28;;;;;;;13.78;6.62;;;;;;;-1.87;100.00;96499.66;1010461;29;20031;-66
2023/03/28 02:04:59;;;;;;;12.43;7.18;;;;;;;-1.87;100.00;96504.78;1010622;29;20033;-66
2023/03/28 02:05:31;;;;;;;12.82;6.93;;;;;;;-1.89;100.00;96504.16;1007284;29;20168;-70
2023/03/28 02:06:04;;;;;;;12.84;7.06;;;;;;;-1.89;100.00;96504.16;1006840;29;20510;-70
2023/03/28 02:06:35;;;;;;;13.22;7.10;;;;;;;-1.94;100.00;96498.72;1006573;29;20025;-66
2023/03/28 02:07:07;;;;;;;12.10;7.55;;;;;;;-1.91;100.00;96508.69;1011031;29;20012;-67
2023/03/28 02:07:38;;;;;;;10.18;6.78;;;;;;;-1.90;100.00;96505.13;1014732;29;20272;-67
2023/03/28 02:08:09;;;;;;;14.48;8.68;;;;;;;-1.96;100.00;96500.63;1011633;29;20059;-67
2023/03/28 02:08:40;;;;;;;10.77;6.70;;;;;;;-1.90;100.00;96508.50;1011105;29;20048;-68
2023/03/28 02:09:11;;;;;;;13.30;7.44;;;;;;;-1.86;100.00;96508.16;1014470;29;20040;-68
2023/03/28 02:09:41;;;;;;;12.30;7.20;;;;;;;-1.86;100.00;96514.09;1014841;29;20024;-69
2023/03/28 02:10:13;;;;;;;13.10;7.10;;;;;;;-1.84;100.00;96513.97;1010835;29;20032;-68
2023/03/28 02:10:44;;;;;;;10.44;7.00;;;;;;;-1.91;100.00;96508.69;1010617;29;20028;-68
2023/03/28 02:11:15;;;;;;;11.38;6.35;;;;;;;-1.81;100.00;96514.44;1009993;29;20031;-69
2023/03/28 02:11:46;;;;;;;11.23;7.03;;;;;;;-1.83;100.00;96511.22;1010975;29;20024;-68
2023/03/28 02:12:25;;;;;;;11.50;6.38;;;;;;;-1.88;100.00;96508.31;1011028;29;20024;-67
2023/03/28 02:13:02;;;;;;;10.96;6.56;;;;;;;-1.87;100.00;96512.50;1011040;29;20035;-69
2023/03/28 02:13:35;;;;;;;13.32;6.74;;;;;;;-1.90;100.00;96507.69;1018614;29;20027;-69
2023/03/28 02:14:10;;;;;;;10.04;6.50;;;;;;;-1.91;100.00;96512.03;1010920;29;20115;-67
2023/03/28 02:14:42;;;;;;;13.46;7.02;;;;;;;-1.93;100.00;96508.03;1010206;29;20012;-68
2023/03/28 02:15:14;;;;;;;12.76;7.04;;;;;;;-1.96;100.00;96505.78;1010956;29;20021;-65
2023/03/28 02:15:47;;;;;;;10.08;6.54;;;;;;;-1.93;100.00;96511.38;1010683;29;20483;-67
2023/03/28 02:16:18;;;;;;;10.82;6.56;;;;;;;-1.91;100.00;96508.69;1015604;29;20024;-69
2023/03/28 02:16:50;;;;;;;12.00;6.53;;;;;;;-1.90;100.00;96510.25;1018812;29;20020;-68
2023/03/28 02:17:21;;;;;;;11.88;6.52;;;;;;;-1.91;100.00;96512.03;1016603;29;20020;-69
2023/03/28 02:17:55;;;;;;;12.68;7.04;;;;;;;-1.91;100.00;96513.81;1018698;29;20720;-69
2023/03/28 02:18:31;;;;;;;12.96;6.68;;;;;;;-1.89;100.00;96517.00;1014777;29;20012;-68
2023/03/28 02:19:02;;;;;;;11.80;6.84;;;;;;;-1.91;100.00;96506.09;1014637;29;20057;-72
2023/03/28 02:19:32;;;;;;;12.98;7.18;;;;;;;-1.95;100.00;96500.47;1018856;29;20152;-68
2023/03/28 02:20:10;;;;;;;10.60;6.32;;;;;;;-1.84;100.00;96513.97;1014473;29;20035;-66
2023/03/28 02:20:41;;;;;;;12.08;7.22;;;;;;;-1.83;100.00;96510.41;1011004;29;20036;-69
2023/03/28 02:21:17;;;;;;;15.25;7.13;;;;;;;-1.88;100.00;96513.47;1010561;29;20064;-66
2023/03/28 02:22:07;;;;;;;12.72;6.50;;;;;;;-1.89;100.00;96509.28;1015610;29;20052;-66
2023/03/28 02:22:38;;;;;;;11.76;6.66;;;;;;;-1.91;100.00;96504.31;1009764;29;20032;-68
2023/03/28 02:23:17;;;;;;;13.02;6.72;;;;;;;-1.93;100.00;96502.88;1011968;29;20486;-70
2023/03/28 02:23:50;;;;;;;12.60;6.52;;;;;;;-1.90;100.00;96512.84;1011681;29;20020;-65
2023/03/28 02:24:20;;;;;;;17.54;7.52;;;;;;;-1.96;100.00;96503.22;1015341;29;20051;-70
2023/03/28 02:24:51;;;;;;;12.38;6.30;;;;;;;-1.89;100.00;96509.28;1018629;29;20023;-66
2023/03/28 02:25:21;;;;;;;11.93;6.60;;;;;;;-1.91;100.00;96506.09;1016982;29;20099;-67
2023/03/28 02:25:52;;;;;;;10.27;6.68;;;;;;;-1.95;100.00;96513.31;1015481;29;20542;-68
2023/03/28 02:26:22;;;;;;;13.02;6.80;;;;;;;-1.93;100.00;96513.16;1015920;29;20024;-69
2023/03/28 02:26:53;;;;;;;10.27;6.30;;;;;;;-1.98;100.00;96505.97;1017244;29;20022;-67
2023/03/28 02:27:24;;;;;;;12.20;7.25;;;;;;;-1.95;100.00;96512.50;1018921;29;20012;-65
2023/03/28 02:27:57;;;;;;;10.95;6.45;;;;;;;-1.93;100.00;96516.53;1019494;29;20032;-70
2023/03/28 02:28:27;;;;;;;11.82;6.42;;;;;;;-1.97;100.00;96507.56;1015566;29;20598;-66
2023/03/28 02:28:58;;;;;;;11.90;6.97;;;;;;;-1.95;100.00;96512.50;1015009;29;20020;-66
2023/03/28 02:29:29;;;;;;;11.40;7.03;;;;;;;-1.92;100.00;96512.19;1011605;29;20020;-68
2023/03/28 02:30:00;;;;;;;9.86;6.82;;;;;;;-1.93;100.00;96510.59;1015854;29;20796;-67
2023/03/28 02:30:31;;;;;;;11.18;6.80;;;;;;;-1.93;100.00;96513.16;1011556;29;20039;-69
2023/03/28 02:31:02;;;;;;;12.16;7.34;;;;;;;-1.93;100.00;96510.59;1004027;29;20041;-67
2023/03/28 02:31:34;;;;;;;13.72;6.90;;;;;;;-1.93;100.00;96518.31;1011883;29;20021;-65
2023/03/28 02:32:04;;;;;;;11.80;6.20;;;;;;;-1.89;100.00;96517.00;1011756;29;20021;-68
2023/03/28 02:32:35;;;;;;;9.57;6.45;;;;;;;-1.88;100.00;96517.81;1015351;29;20036;-66
2023/03/28 02:33:10;;;;;;;11.90;6.32;;;;;;;-1.90;100.00;96520.56;1016076;29;20020;-66
2023/03/28 02:33:42;;;;;;;13.58;7.64;;;;;;;-1.88;100.00;96512.66;1016256;29;20031;-67
2023/03/28 02:34:12;;;;;;;12.46;7.22;;;;;;;-1.84;100.00;96514.75;1016434;29;20506;-70
2023/03/28 02:34:43;;;;;;;11.10;5.88;;;;;;;-1.90;100.00;96505.91;1011121;29;20025;-65
2023/03/28 02:35:14;;;;;;;13.06;6.98;;;;;;;-1.88;100.00;96521.16;1015499;29;20031;-66
2023/03/28 02:36:07;;;;;;;13.75;6.50;;;;;;;-1.87;100.00;96517.66;1015434;29;20012;-71
2023/03/28 02:36:40;;;;;;;10.82;6.10;;;;;;;-1.88;100.00;96516.03;1018486;29;20493;-64
2023/03/28 02:37:17;;;;;;;12.48;7.13;;;;;;;-1.90;100.00;96518.78;1019534;29;20028;-66
2023/03/28 02:38:03;;;;;;;10.34;6.10;;;;;;;-1.89;100.00;96519.59;1019054;29;20020;-67
2023/03/28 02:38:36;;;;;;;11.23;6.35;;;;;;;-1.87;100.00;96525.38;1019778;29;20031;-66
2023/03/28 02:39:09;;;;;;;11.68;6.28;;;;;;;-1.89;100.00;96522.16;1015503;29;20474;-70
2023/03/28 02:39:51;;;;;;;9.98;5.80;;;;;;;-1.88;100.00;96523.75;1018665;29;20011;-67
2023/03/28 02:40:42;;;;;;;15.80;6.94;;;;;;;-1.87;100.00;96515.09;1015542;29;20024;-64
2023/03/28 02:41:25;;;;;;;12.25;6.50;;;;;;;-1.85;100.00;96514.91;1019528;29;20039;-67
2023/03/28 02:42:07;;;;;;;10.82;5.62;;;;;;;-1.84;100.00;96519.91;1019757;29;20295;-68
2023/03/28 02:42:52;;;;;;;10.30;5.86;;;;;;;-1.85;100.00;96513.13;1019760;29;20080;-65
2023/03/28 02:43:35;;;;;;;12.42;6.42;;;;;;;-1.82;100.00;96515.38;1015401;29;20569;-69
2023/03/28 02:44:06;;;;;;;11.93;6.07;;;;;;;-1.81;100.00;96519.56;1014064;29;20023;-66
2023/03/28 02:45:14;;;;;;;14.87;6.70;;;;;;;-1.83;100.00;96518.91;1015435;29;20374;-67
2023/03/28 02:46:08;;;;;;;11.90;6.20;;;;;;;-1.83;100.00;96521.50;1016095;29;20016;-67